createdAt,value
2018-07-11T00:01:19.766Z,5.50
2018-07-11T00:03:55.840Z,5.25
2018-07-11T00:06:31.070Z,5.97
2018-07-11T00:09:07.077Z,4.97
2018-07-11T00:11:42.610Z,5.47
2018-07-11T00:14:18.334Z,5.70
2018-07-11T00:16:58.914Z,5.78
2018-07-11T00:19:35.782Z,5.83
2018-07-11T00:22:18.099Z,5.83
2018-07-11T00:24:53.837Z,6.42
2018-07-11T00:27:29.321Z,6.53
2018-07-11T00:30:04.826Z,6.50
2018-07-11T00:32:40.062Z,6.50
2018-07-11T00:35:15.718Z,7.87
2018-07-11T00:37:51.248Z,7.53
2018-07-11T00:40:27.654Z,7.05
2018-07-11T00:43:03.162Z,7.05
2018-07-11T00:45:38.933Z,7.33
2018-07-11T00:48:15.190Z,6.20
2018-07-11T00:50:51.158Z,6.97
2018-07-11T00:53:29.038Z,6.42
2018-07-11T00:56:05.641Z,6.83
2018-07-11T00:59:02.970Z,6.67
2018-07-11T01:01:40.382Z,7.15
2018-07-11T01:04:15.647Z,6.72
2018-07-11T01:06:51.380Z,5.90
2018-07-11T01:09:26.863Z,7.45
2018-07-11T01:12:02.275Z,6.87
2018-07-11T01:14:37.693Z,6.92
2018-07-11T01:17:18.694Z,5.90
2018-07-11T01:19:54.346Z,6.17
2018-07-11T01:22:29.556Z,6.30
2018-07-11T01:25:05.235Z,6.17
2018-07-11T01:27:43.725Z,7.00
2018-07-11T01:30:19.603Z,7.85
2018-07-11T01:32:54.966Z,6.87
2018-07-11T01:35:30.839Z,6.60
2018-07-11T01:38:06.219Z,7.25
2018-07-11T01:40:41.764Z,6.40
2018-07-11T01:43:17.241Z,6.60
2018-07-11T01:45:52.792Z,7.10
2018-07-11T01:48:28.291Z,7.05
2018-07-11T01:51:03.895Z,6.45
2018-07-11T01:53:39.243Z,7.60
2018-07-11T01:56:14.938Z,6.90
2018-07-11T01:58:50.336Z,6.42
2018-07-11T02:01:25.650Z,7.10
2018-07-11T02:04:01.142Z,6.97
2018-07-11T02:06:36.760Z,7.20
2018-07-11T02:09:12.131Z,7.92
2018-07-11T02:11:47.747Z,6.83
2018-07-11T02:14:23.118Z,8.45
2018-07-11T02:16:59.346Z,8.88
2018-07-11T02:19:34.583Z,7.33
2018-07-11T02:22:10.322Z,8.03
2018-07-11T02:24:45.844Z,7.28
2018-07-11T02:27:21.549Z,7.55
2018-07-11T02:29:57.498Z,8.40
2018-07-11T02:32:34.179Z,8.08
2018-07-11T02:35:09.621Z,8.43
2018-07-11T02:37:45.278Z,8.30
2018-07-11T02:40:20.773Z,9.10
2018-07-11T02:42:56.364Z,8.33
2018-07-11T02:45:31.814Z,9.50
2018-07-11T02:48:07.769Z,8.43
2018-07-11T02:50:43.236Z,9.85
2018-07-11T02:53:21.471Z,9.58
2018-07-11T02:55:56.919Z,10.90
2018-07-11T02:58:32.411Z,11.00
2018-07-11T03:01:07.903Z,12.15
2018-07-11T03:03:43.420Z,11.70
2018-07-11T03:06:19.124Z,13.40
2018-07-11T03:08:54.523Z,11.60
2018-07-11T03:11:30.028Z,13.43
2018-07-11T03:14:05.812Z,12.58
2018-07-11T03:16:41.418Z,12.05
2018-07-11T03:19:17.220Z,12.53
2018-07-11T03:21:52.627Z,13.28
2018-07-11T03:24:28.403Z,12.30
2018-07-11T03:27:03.879Z,11.63
2018-07-11T03:29:39.400Z,12.05
2018-07-11T03:32:15.039Z,11.97
2018-07-11T03:34:50.811Z,11.97
2018-07-11T03:37:26.283Z,13.93
2018-07-11T03:40:01.926Z,15.05
2018-07-11T03:42:37.267Z,13.40
2018-07-11T03:45:12.975Z,14.90
2018-07-11T03:47:48.319Z,15.00
2018-07-11T03:50:23.978Z,17.07
2018-07-11T03:52:59.221Z,16.55
2018-07-11T03:55:34.730Z,17.00
2018-07-11T03:58:10.191Z,16.45
2018-07-11T04:00:45.632Z,15.95
2018-07-11T04:03:21.110Z,17.75
2018-07-11T04:05:56.656Z,16.70
2018-07-11T04:08:32.042Z,18.45
2018-07-11T04:11:07.758Z,17.42
2018-07-11T04:13:43.242Z,15.80
2018-07-11T04:16:18.849Z,15.03
2018-07-11T04:18:54.271Z,16.15
2018-07-11T04:21:29.732Z,15.28
2018-07-11T04:24:05.381Z,16.00
2018-07-11T04:26:40.833Z,17.00
2018-07-11T04:29:16.245Z,14.78
2018-07-11T04:31:52.037Z,15.63
2018-07-11T04:34:27.387Z,17.57
2018-07-11T04:37:03.121Z,18.82
2018-07-11T04:39:38.695Z,18.42
2018-07-11T04:42:14.222Z,17.32
2018-07-11T04:44:49.700Z,19.20
2018-07-11T04:47:25.178Z,16.73
2018-07-11T04:50:00.781Z,16.15
2018-07-11T04:52:36.518Z,16.73
2018-07-11T04:55:12.439Z,17.87
2018-07-11T04:57:48.226Z,17.20
2018-07-11T05:00:23.727Z,17.55
2018-07-11T05:03:00.335Z,18.77
2018-07-11T05:05:35.823Z,18.90
2018-07-11T05:08:11.332Z,19.00
2018-07-11T05:10:46.921Z,19.12
2018-07-11T05:13:22.964Z,20.37
2018-07-11T05:15:58.299Z,20.75
2018-07-11T05:18:34.047Z,18.65
2018-07-11T05:21:09.443Z,19.82
2018-07-11T05:23:44.837Z,20.97
2018-07-11T05:26:20.195Z,21.82
2018-07-11T05:28:55.713Z,19.73
2018-07-11T05:31:31.227Z,21.75
2018-07-11T05:34:06.734Z,20.95
2018-07-11T05:36:42.179Z,22.22
2018-07-11T05:39:18.008Z,20.45
2018-07-11T05:41:53.633Z,21.55
2018-07-11T05:44:29.100Z,20.40
2018-07-11T05:47:05.519Z,19.65
2018-07-11T05:49:41.578Z,20.02
2018-07-11T05:52:17.035Z,19.45
2018-07-11T05:54:52.823Z,18.40
2018-07-11T05:57:28.373Z,18.62
2018-07-11T06:00:03.953Z,18.55
2018-07-11T06:02:39.504Z,19.50
2018-07-11T06:05:15.126Z,21.07
2018-07-11T06:07:50.687Z,19.00
2018-07-11T06:10:26.726Z,19.87
2018-07-11T06:13:02.244Z,19.00
2018-07-11T06:15:37.932Z,18.37
2018-07-11T06:18:13.390Z,20.65
2018-07-11T06:20:48.931Z,21.30
2018-07-11T06:23:24.369Z,18.45
2018-07-11T06:25:59.910Z,19.00
2018-07-11T06:28:35.406Z,17.32
2018-07-11T06:31:11.001Z,18.77
2018-07-11T06:33:46.546Z,19.05
2018-07-11T06:36:22.202Z,17.15
2018-07-11T06:38:57.659Z,17.73
2018-07-11T06:41:33.195Z,16.93
2018-07-11T06:44:08.715Z,16.20
2018-07-11T06:46:44.495Z,17.35
2018-07-11T06:49:20.156Z,16.70
2018-07-11T06:51:55.900Z,16.20
2018-07-11T06:54:31.252Z,15.43
2018-07-11T06:57:06.887Z,16.40
2018-07-11T06:59:42.394Z,16.48
2018-07-11T07:02:17.983Z,15.68
2018-07-11T07:04:53.568Z,16.07
2018-07-11T07:07:29.094Z,15.28
2018-07-11T07:10:04.567Z,15.43
2018-07-11T07:12:40.140Z,14.13
2018-07-11T07:15:15.524Z,15.53
2018-07-11T07:17:51.127Z,14.55
2018-07-11T07:20:26.715Z,14.30
2018-07-11T07:23:02.199Z,15.15
2018-07-11T07:25:37.732Z,14.23
2018-07-11T07:28:13.561Z,14.50
2018-07-11T07:30:49.027Z,13.65
2018-07-11T07:33:24.447Z,12.85
2018-07-11T07:35:59.849Z,12.88
2018-07-11T07:38:40.266Z,11.70
2018-07-11T07:41:16.069Z,12.53
2018-07-11T07:43:51.587Z,11.95
2018-07-11T07:46:26.999Z,10.55
2018-07-11T07:49:02.769Z,11.28
2018-07-11T07:51:38.224Z,10.63
2018-07-11T07:54:13.762Z,9.93
2018-07-11T07:56:49.221Z,8.63
2018-07-11T07:59:25.459Z,10.58
2018-07-11T08:02:00.686Z,7.97
2018-07-11T08:04:36.355Z,8.50
2018-07-11T08:07:11.865Z,7.45
2018-07-11T08:09:47.372Z,6.45
2018-07-11T08:12:22.506Z,5.95
2018-07-11T08:14:58.203Z,6.50
2018-07-11T08:17:33.404Z,7.28
2018-07-11T08:20:09.223Z,7.03
2018-07-11T08:23:34.506Z,5.95
2018-07-11T08:26:27.403Z,6.30
2018-07-11T08:29:36.213Z,6.80
2018-07-11T08:33:02.034Z,6.75
2018-07-11T08:35:57.142Z,6.43
2018-07-11T08:38:50.910Z,6.70
2018-07-11T08:43:48.293Z,6.53
2018-07-11T08:46:38.989Z,6.50
2018-07-11T08:49:31.730Z,6.50
2018-07-11T08:56:30.067Z,6.40
2018-07-11T09:02:23.158Z,6.07
2018-07-11T09:07:20.793Z,6.20
2018-07-11T09:10:15.189Z,5.90
2018-07-11T09:16:11.971Z,5.93
2018-07-11T09:19:32.978Z,5.57
2018-07-11T09:22:23.591Z,6.73
2018-07-11T09:24:59.021Z,6.93
2018-07-11T09:27:34.392Z,5.90
2018-07-11T09:30:09.886Z,6.10
2018-07-11T09:32:45.299Z,5.97
2018-07-11T09:35:20.977Z,6.13
2018-07-11T09:37:56.343Z,6.20
2018-07-11T09:40:32.010Z,5.70
2018-07-11T09:43:07.581Z,6.40
2018-07-11T09:45:43.709Z,5.70
2018-07-11T09:48:19.055Z,7.40
2018-07-11T09:50:54.701Z,6.60
2018-07-11T09:53:30.133Z,7.10
2018-07-11T09:56:06.105Z,6.47
2018-07-11T09:58:41.846Z,6.60
2018-07-11T10:01:22.635Z,7.97
2018-07-11T10:03:58.473Z,7.33
2018-07-11T10:06:34.034Z,7.40
2018-07-11T10:09:09.495Z,10.27
2018-07-11T10:11:44.821Z,9.03
2018-07-11T10:14:20.456Z,8.10
2018-07-11T10:16:56.023Z,9.17
2018-07-11T10:19:31.334Z,9.23
2018-07-11T10:22:06.805Z,9.63
2018-07-11T10:24:42.319Z,5.58
2018-07-11T10:27:17.844Z,7.30
2018-07-11T10:29:53.052Z,5.90
2018-07-11T10:32:28.815Z,9.10
2018-07-11T10:35:04.074Z,5.30
2018-07-11T10:37:39.682Z,5.20
2018-07-11T10:40:15.066Z,11.40
2018-07-11T10:42:50.454Z,5.77
2018-07-11T10:45:25.885Z,5.20
2018-07-11T10:48:01.770Z,4.77
2018-07-11T10:50:37.217Z,4.03
2018-07-11T10:53:12.658Z,4.23
2018-07-11T10:55:47.989Z,3.10
2018-07-11T10:58:23.555Z,3.13
2018-07-11T11:01:05.702Z,3.83
2018-07-11T11:03:34.954Z,3.93
2018-07-11T11:06:10.246Z,4.10
2018-07-11T11:08:45.843Z,3.80
2018-07-11T11:11:21.310Z,3.87
2018-07-11T11:13:57.066Z,3.60
2018-07-11T11:16:32.400Z,4.00
2018-07-11T11:19:08.338Z,4.03
2018-07-11T11:21:43.461Z,4.53
2018-07-11T11:24:18.921Z,4.70
2018-07-11T11:26:54.425Z,6.10
2018-07-11T11:29:29.913Z,5.13
2018-07-11T11:32:05.551Z,9.80
2018-07-11T11:34:41.015Z,6.17
2018-07-11T11:37:16.526Z,5.30
2018-07-11T11:39:52.320Z,6.37
2018-07-11T11:42:27.839Z,6.53
2018-07-11T11:45:03.211Z,6.67
2018-07-11T11:47:38.759Z,5.70
2018-07-11T11:50:14.608Z,5.77
2018-07-11T11:52:50.139Z,5.63
2018-07-11T11:55:25.831Z,7.60
2018-07-11T11:58:01.314Z,6.37
2018-07-11T12:00:37.075Z,6.30
2018-07-11T12:03:12.568Z,6.97
2018-07-11T12:05:48.187Z,6.80
2018-07-11T12:08:23.614Z,5.97
2018-07-11T12:10:59.019Z,6.60
2018-07-11T12:13:34.455Z,8.03
2018-07-11T12:16:09.842Z,7.33
2018-07-11T12:18:45.070Z,6.53
2018-07-11T12:21:20.485Z,6.83
2018-07-11T12:23:55.837Z,9.30
2018-07-11T12:26:31.346Z,6.40
2018-07-11T12:29:06.666Z,7.47
2018-07-11T12:31:42.134Z,6.77
2018-07-11T12:34:17.525Z,6.70
2018-07-11T12:36:55.601Z,10.47
2018-07-11T12:39:31.054Z,9.93
2018-07-11T12:42:06.885Z,5.50
2018-07-11T12:44:42.264Z,10.03
2018-07-11T12:47:23.428Z,8.23
2018-07-11T12:49:58.808Z,5.10
2018-07-11T12:52:34.389Z,5.10
2018-07-11T12:55:09.870Z,7.13
2018-07-11T12:57:45.386Z,5.43
2018-07-11T13:00:20.359Z,6.07
2018-07-11T13:02:56.818Z,9.03
2018-07-11T13:05:32.470Z,5.20
2018-07-11T13:08:07.885Z,6.40
2018-07-11T13:10:43.537Z,5.70
2018-07-11T13:13:19.174Z,5.40
2018-07-11T13:15:54.837Z,4.73
2018-07-11T13:18:30.232Z,6.47
2018-07-11T13:21:05.733Z,6.20
2018-07-11T13:23:41.109Z,5.73
2018-07-11T13:26:16.618Z,5.87
2018-07-11T13:28:52.304Z,5.60
2018-07-11T13:31:27.710Z,6.00
2018-07-11T13:34:03.080Z,5.37
2018-07-11T13:36:38.705Z,5.70
2018-07-11T13:39:19.464Z,11.53
2018-07-11T13:41:54.993Z,5.23
2018-07-11T13:44:30.334Z,5.30
2018-07-11T13:47:11.237Z,5.40
2018-07-11T13:49:46.908Z,5.10
2018-07-11T13:52:22.669Z,8.47
2018-07-11T13:54:57.907Z,5.47
2018-07-11T13:57:33.630Z,5.77
2018-07-11T14:00:08.701Z,6.20
2018-07-11T14:02:44.239Z,7.63
2018-07-11T14:05:19.841Z,5.87
2018-07-11T14:07:55.313Z,7.63
2018-07-11T14:10:30.819Z,6.40
2018-07-11T14:13:06.505Z,9.10
2018-07-11T14:15:41.481Z,8.27
2018-07-11T14:18:16.853Z,7.27
2018-07-11T14:20:52.230Z,6.03
2018-07-11T14:23:37.515Z,7.33
2018-07-11T14:26:15.989Z,6.00
2018-07-11T14:28:53.310Z,8.40
2018-07-11T14:31:33.762Z,6.73
2018-07-11T14:34:10.042Z,6.50
2018-07-11T14:36:45.577Z,6.97
2018-07-11T14:39:21.338Z,6.23
2018-07-11T14:41:56.921Z,7.70
2018-07-11T14:44:32.336Z,5.83
2018-07-11T14:47:11.921Z,6.40
2018-07-11T14:49:47.830Z,6.60
2018-07-11T14:52:23.344Z,6.97
2018-07-11T14:54:58.921Z,7.40
2018-07-11T14:57:34.759Z,7.10
2018-07-11T15:00:10.531Z,6.57
2018-07-11T15:02:46.041Z,7.50
2018-07-11T15:05:21.757Z,6.80
2018-07-11T15:07:57.673Z,6.57
2018-07-11T15:10:33.261Z,6.13
2018-07-11T15:13:08.710Z,6.27
2018-07-11T15:15:44.129Z,6.60
2018-07-11T15:18:19.848Z,7.40
2018-07-11T15:20:55.839Z,6.60
2018-07-11T15:23:31.712Z,10.00
2018-07-11T15:26:07.254Z,9.97
2018-07-11T15:28:42.965Z,8.50
2018-07-11T15:31:18.533Z,6.80
2018-07-11T15:33:54.481Z,7.23
2018-07-11T15:36:29.945Z,6.60
2018-07-11T15:39:06.135Z,6.13
2018-07-11T15:41:41.750Z,6.00
2018-07-11T15:44:17.000Z,6.93
2018-07-11T15:46:52.641Z,5.97
2018-07-11T15:49:28.102Z,6.53
2018-07-11T15:52:03.621Z,7.07
2018-07-11T15:54:39.595Z,6.80
2018-07-11T15:57:15.040Z,8.30
2018-07-11T16:00:00.793Z,6.60
2018-07-11T16:02:41.090Z,8.10
2018-07-11T16:05:20.551Z,6.60
2018-07-11T16:07:58.127Z,6.00
2018-07-11T16:10:41.733Z,7.00
2018-07-11T16:13:17.400Z,7.10
2018-07-11T16:15:52.698Z,8.03
2018-07-11T16:18:28.824Z,7.87
2018-07-11T16:21:04.726Z,8.00
2018-07-11T16:23:40.416Z,7.60
2018-07-11T16:26:16.059Z,7.73
2018-07-11T16:28:51.422Z,13.00
2018-07-11T16:31:26.953Z,9.30
2018-07-11T16:34:02.806Z,7.20
2018-07-11T16:36:38.252Z,6.63
2018-07-11T16:39:13.798Z,10.20
2018-07-11T16:41:49.118Z,6.13
2018-07-11T16:44:24.689Z,5.77
2018-07-11T16:47:01.410Z,5.83
2018-07-11T16:49:41.100Z,5.93
2018-07-11T16:52:16.627Z,5.07
2018-07-11T16:54:52.327Z,6.20
2018-07-11T16:57:41.569Z,5.70
2018-07-11T17:00:20.004Z,9.30
2018-07-11T17:03:15.693Z,5.70
2018-07-11T17:06:00.269Z,7.67
2018-07-11T17:08:38.749Z,5.08
2018-07-11T17:11:22.527Z,5.67
2018-07-11T17:13:59.480Z,5.40
2018-07-11T17:16:44.475Z,4.87
2018-07-11T17:19:39.612Z,6.30
2018-07-11T17:22:16.357Z,5.37
2018-07-11T17:24:51.811Z,4.40
2018-07-11T17:27:27.361Z,5.30
2018-07-11T17:30:03.863Z,4.80
2018-07-11T17:32:39.365Z,5.63
2018-07-11T17:35:14.711Z,5.63
2018-07-11T17:37:50.681Z,14.47
2018-07-11T17:40:26.190Z,17.10
2018-07-11T17:43:01.987Z,7.73
2018-07-11T17:45:38.465Z,6.70
2018-07-11T17:48:31.078Z,8.70
2018-07-11T17:51:21.314Z,11.43
2018-07-11T17:53:58.589Z,6.30
2018-07-11T17:56:45.650Z,6.47
2018-07-11T17:59:33.955Z,6.60
2018-07-11T18:02:22.383Z,8.83
2018-07-11T18:05:08.110Z,6.70
2018-07-11T18:07:49.250Z,7.77
2018-07-11T18:10:48.751Z,13.13
2018-07-11T18:13:37.740Z,11.73
2018-07-11T18:16:27.381Z,7.90
2018-07-11T18:21:17.713Z,7.73
2018-07-11T18:24:05.736Z,10.00
2018-07-11T18:29:01.072Z,10.17
2018-07-11T18:31:57.094Z,6.63
2018-07-11T18:37:02.646Z,6.17
2018-07-11T18:40:00.602Z,5.90
2018-07-11T18:42:59.629Z,6.83
2018-07-11T18:46:23.134Z,9.80
2018-07-11T18:49:16.092Z,7.25
2018-07-11T18:52:31.914Z,7.47
2018-07-11T18:57:32.926Z,8.75
2018-07-11T19:00:33.332Z,6.70
2018-07-11T19:05:27.546Z,5.67
2018-07-11T19:08:16.005Z,25.02
2018-07-11T19:11:02.823Z,9.33
2018-07-11T19:13:44.939Z,5.75
2018-07-11T19:16:38.608Z,5.40
2018-07-11T19:19:22.804Z,11.30
2018-07-11T19:22:08.358Z,23.05
2018-07-11T19:27:07.553Z,6.65
2018-07-11T19:30:04.402Z,8.03
2018-07-11T19:32:58.249Z,6.78
2018-07-11T19:35:57.584Z,9.18
2018-07-11T19:38:38.018Z,8.13
2018-07-11T19:41:18.713Z,5.40
2018-07-11T19:46:18.595Z,6.40
2018-07-11T19:49:11.545Z,20.70
2018-07-11T19:51:59.040Z,9.43
2018-07-11T19:54:48.073Z,7.15
2018-07-11T19:57:24.230Z,14.15
2018-07-11T20:00:00.118Z,22.58
2018-07-11T20:02:36.096Z,11.53
2018-07-11T20:05:11.709Z,18.02
2018-07-11T20:07:47.493Z,33.73
2018-07-11T20:10:22.805Z,12.15
2018-07-11T20:12:58.532Z,19.73
2018-07-11T20:15:33.780Z,9.23
2018-07-11T20:18:09.334Z,27.40
2018-07-11T20:20:44.785Z,17.15
2018-07-11T20:23:20.418Z,17.73
2018-07-11T20:25:56.883Z,23.83
2018-07-11T20:28:32.340Z,9.68
2018-07-11T20:31:07.798Z,6.78
2018-07-11T20:33:43.430Z,9.10
2018-07-11T20:36:18.906Z,8.80
2018-07-11T20:38:54.517Z,8.30
2018-07-11T20:41:29.761Z,14.38
2018-07-11T20:44:05.223Z,8.95
2018-07-11T20:46:40.652Z,11.63
2018-07-11T20:49:21.725Z,36.30
2018-07-11T20:51:57.037Z,21.30
2018-07-11T20:54:32.628Z,23.87
2018-07-11T20:57:08.105Z,28.10
2018-07-11T21:00:00.895Z,37.78
2018-07-11T21:02:53.281Z,12.33
2018-07-11T21:05:47.750Z,33.83
2018-07-11T21:09:49.951Z,29.60
2018-07-11T21:14:51.193Z,14.07
2018-07-11T21:17:41.573Z,23.90
2018-07-11T21:20:17.250Z,25.32
2018-07-11T21:22:52.449Z,47.13
2018-07-11T21:25:28.032Z,10.38
2018-07-11T21:28:03.437Z,22.52
2018-07-11T21:30:39.019Z,16.50
2018-07-11T21:33:14.386Z,20.37
2018-07-11T21:35:50.014Z,19.10
2018-07-11T21:38:25.359Z,15.08
2018-07-11T21:41:01.006Z,26.62
2018-07-11T21:43:36.224Z,19.42
2018-07-11T21:46:12.110Z,18.98
2018-07-11T21:48:47.629Z,45.20
2018-07-11T21:51:23.265Z,42.75
2018-07-11T21:53:58.479Z,19.20
2018-07-11T21:56:33.981Z,42.17
2018-07-11T21:59:09.505Z,39.67
2018-07-11T22:01:45.083Z,38.50
2018-07-11T22:04:20.414Z,37.33
2018-07-11T22:06:56.071Z,27.45
2018-07-11T22:09:31.570Z,16.82
2018-07-11T22:12:07.281Z,21.60
2018-07-11T22:14:42.634Z,25.80
2018-07-11T22:17:35.263Z,22.60
2018-07-11T22:20:09.388Z,18.92
2018-07-11T22:22:43.358Z,18.60
2018-07-11T22:25:17.127Z,24.92
2018-07-11T22:27:51.201Z,25.65
2018-07-11T22:30:25.520Z,23.07
2018-07-11T22:32:59.633Z,25.27
2018-07-11T22:35:33.681Z,25.85
2018-07-11T22:38:07.658Z,20.35
2018-07-11T22:40:42.168Z,16.48
2018-07-11T22:43:16.421Z,21.20
2018-07-11T22:45:50.367Z,17.15
2018-07-11T22:48:24.626Z,15.00
2018-07-11T22:50:58.478Z,16.27
2018-07-11T22:53:32.546Z,19.60
2018-07-11T22:56:06.514Z,17.82
2018-07-11T22:58:40.669Z,20.20
2018-07-11T23:01:14.555Z,18.23
2018-07-11T23:03:48.898Z,19.62
2018-07-11T23:06:22.684Z,18.82
2018-07-11T23:08:56.717Z,19.50
2018-07-11T23:11:30.678Z,19.35
2018-07-11T23:14:04.639Z,20.77
2018-07-11T23:16:38.366Z,20.27
2018-07-11T23:19:12.559Z,19.62
2018-07-11T23:21:46.517Z,16.87
2018-07-11T23:24:21.710Z,18.67
2018-07-11T23:26:55.686Z,18.85
2018-07-11T23:29:29.737Z,16.67
2018-07-11T23:32:03.665Z,17.48
2018-07-11T23:34:37.756Z,18.55
2018-07-11T23:37:11.583Z,17.17
2018-07-11T23:39:45.674Z,16.32
2018-07-11T23:42:19.462Z,18.65
2018-07-11T23:44:53.493Z,17.42
2018-07-11T23:47:27.258Z,17.52
2018-07-11T23:50:01.322Z,17.25
2018-07-11T23:52:35.137Z,15.93
2018-07-11T23:55:09.026Z,15.83
2018-07-11T23:57:43.062Z,17.35
